Kawaguchi, Japan
Current Conditions -  °F | °C
As of 4:00 PM on Wednesday 26 Nov 2014 (Local Time) from RJTI Reporting Station
Light Rain Light Rain  
Wind Chill: 42°   Ceiling: 900
Heat Index: 48°   Visibility: 3mi
Dew Point: 45°   Wind: 17mph
Humidity: 87%   Direction: 340°NNW
Pressure: 29.88"   Gusts: 36mph
Location:  35.81°N, 139.73°E
Report Text: RJTI 260700Z 34015G31KT 310V020 5000 -RA BR FEW007 BKN009 BKN020 09/07 Q1012
Loading
Personal Weather Stations






























Interactive Weather Map New forecast layout! Learn more

10-Day Weather Forecast

Advertisements
Track Severe Weather on mobile